sensor_id;sensor_type;location;lat;lon;timestamp;pressure;altitude;pressure_sealevel;temperature;humidity
9335;BME280;4706;41.844;26.082;2023-03-23T00:01:20;100796.66;;;13.24;79.39
9335;BME280;4706;41.844;26.082;2023-03-23T00:03:49;100799.13;;;13.25;79.55
9335;BME280;4706;41.844;26.082;2023-03-23T00:06:15;100799.94;;;13.26;80.10
9335;BME280;4706;41.844;26.082;2023-03-23T00:08:44;100803.28;;;13.23;80.30
9335;BME280;4706;41.844;26.082;2023-03-23T00:11:13;100796.66;;;13.24;80.82
9335;BME280;4706;41.844;26.082;2023-03-23T00:13:44;100798.41;;;13.20;81.59
9335;BME280;4706;41.844;26.082;2023-03-23T00:16:13;100800.88;;;13.21;82.34
9335;BME280;4706;41.844;26.082;2023-03-23T00:18:50;100795.00;;;13.23;82.49
9335;BME280;4706;41.844;26.082;2023-03-23T00:21:23;100799.34;;;13.15;82.63
9335;BME280;4706;41.844;26.082;2023-03-23T00:24:06;100797.59;;;13.19;82.67
9335;BME280;4706;41.844;26.082;2023-03-23T00:26:33;100807.72;;;13.24;82.48
9335;BME280;4706;41.844;26.082;2023-03-23T00:29:03;100793.19;;;13.18;83.05
9335;BME280;4706;41.844;26.082;2023-03-23T00:31:30;100795.34;;;13.21;82.63
9335;BME280;4706;41.844;26.082;2023-03-23T00:34:00;100794.63;;;13.16;82.89
9335;BME280;4706;41.844;26.082;2023-03-23T00:36:27;100794.00;;;13.19;83.31
9335;BME280;4706;41.844;26.082;2023-03-23T00:38:54;100792.19;;;13.14;83.82
9335;BME280;4706;41.844;26.082;2023-03-23T00:41:24;100784.84;;;13.09;83.34
9335;BME280;4706;41.844;26.082;2023-03-23T00:43:55;100790.06;;;13.11;83.97
9335;BME280;4706;41.844;26.082;2023-03-23T00:46:22;100783.19;;;13.08;83.78
9335;BME280;4706;41.844;26.082;2023-03-23T00:48:48;100780.06;;;13.01;84.20
9335;BME280;4706;41.844;26.082;2023-03-23T00:51:16;100781.56;;;13.07;84.74
9335;BME280;4706;41.844;26.082;2023-03-23T00:53:43;100771.16;;;13.04;84.72
9335;BME280;4706;41.844;26.082;2023-03-23T00:56:08;100773.91;;;13.04;85.07
9335;BME280;4706;41.844;26.082;2023-03-23T00:58:35;100777.31;;;13.01;85.25
9335;BME280;4706;41.844;26.082;2023-03-23T01:01:00;100774.16;;;12.94;85.73
9335;BME280;4706;41.844;26.082;2023-03-23T01:03:26;100772.22;;;12.95;85.66
9335;BME280;4706;41.844;26.082;2023-03-23T01:05:54;100769.88;;;12.88;85.92
9335;BME280;4706;41.844;26.082;2023-03-23T01:08:21;100778.16;;;12.88;86.17
9335;BME280;4706;41.844;26.082;2023-03-23T01:10:47;100768.44;;;12.91;85.37
9335;BME280;4706;41.844;26.082;2023-03-23T01:13:14;100768.66;;;12.94;85.56
9335;BME280;4706;41.844;26.082;2023-03-23T01:15:40;100763.94;;;12.95;85.13
9335;BME280;4706;41.844;26.082;2023-03-23T01:18:06;100751.72;;;12.73;85.91
9335;BME280;4706;41.844;26.082;2023-03-23T01:20:32;100772.56;;;12.79;86.25
9335;BME280;4706;41.844;26.082;2023-03-23T01:22:58;100762.34;;;12.80;86.24
9335;BME280;4706;41.844;26.082;2023-03-23T01:25:30;100764.91;;;12.76;85.86
9335;BME280;4706;41.844;26.082;2023-03-23T01:27:57;100760.19;;;12.77;86.31
9335;BME280;4706;41.844;26.082;2023-03-23T01:30:24;100769.16;;;12.82;86.44
9335;BME280;4706;41.844;26.082;2023-03-23T01:32:50;100773.38;;;12.80;86.60
9335;BME280;4706;41.844;26.082;2023-03-23T01:35:16;100768.47;;;12.77;86.92
9335;BME280;4706;41.844;26.082;2023-03-23T01:37:42;100762.97;;;12.77;87.10
9335;BME280;4706;41.844;26.082;2023-03-23T01:40:08;100766.53;;;12.77;87.42
9335;BME280;4706;41.844;26.082;2023-03-23T01:42:36;100777.78;;;12.81;87.13
9335;BME280;4706;41.844;26.082;2023-03-23T01:47:47;100759.81;;;12.70;87.71
9335;BME280;4706;41.844;26.082;2023-03-23T01:50:15;100770.22;;;12.73;87.98
9335;BME280;4706;41.844;26.082;2023-03-23T01:52:41;100768.09;;;12.70;88.19
9335;BME280;4706;41.844;26.082;2023-03-23T01:55:07;100770.22;;;12.73;88.27
9335;BME280;4706;41.844;26.082;2023-03-23T01:57:33;100770.91;;;12.78;87.90
9335;BME280;4706;41.844;26.082;2023-03-23T02:00:06;100775.34;;;12.79;87.21
9335;BME280;4706;41.844;26.082;2023-03-23T02:02:36;100770.09;;;12.78;87.25
9335;BME280;4706;41.844;26.082;2023-03-23T02:05:09;100773.00;;;12.73;87.18
9335;BME280;4706;41.844;26.082;2023-03-23T02:07:36;100770.53;;;12.71;87.83
9335;BME280;4706;41.844;26.082;2023-03-23T02:10:02;100771.38;;;12.72;87.92
9335;BME280;4706;41.844;26.082;2023-03-23T02:12:28;100776.69;;;12.68;87.87
9335;BME280;4706;41.844;26.082;2023-03-23T02:14:53;100777.72;;;12.58;88.62
9335;BME280;4706;41.844;26.082;2023-03-23T02:17:24;100774.66;;;12.60;88.94
9335;BME280;4706;41.844;26.082;2023-03-23T02:28:10;100782.09;;;12.59;89.10
9335;BME280;4706;41.844;26.082;2023-03-23T02:33:21;100783.75;;;12.47;89.95
9335;BME280;4706;41.844;26.082;2023-03-23T02:36:19;100777.34;;;12.37;90.40
9335;BME280;4706;41.844;26.082;2023-03-23T02:39:09;100779.06;;;12.33;90.44
9335;BME280;4706;41.844;26.082;2023-03-23T02:41:45;100774.75;;;12.41;90.23
9335;BME280;4706;41.844;26.082;2023-03-23T02:44:12;100791.09;;;12.51;90.78
9335;BME280;4706;41.844;26.082;2023-03-23T02:46:40;100783.56;;;12.43;90.62
9335;BME280;4706;41.844;26.082;2023-03-23T02:49:08;100786.13;;;12.53;90.65
9335;BME280;4706;41.844;26.082;2023-03-23T02:51:35;100781.63;;;12.44;90.88
9335;BME280;4706;41.844;26.082;2023-03-23T02:54:03;100796.13;;;12.49;91.35
9335;BME280;4706;41.844;26.082;2023-03-23T02:56:30;100793.47;;;12.44;91.45
9335;BME280;4706;41.844;26.082;2023-03-23T02:58:58;100791.94;;;12.38;91.84
9335;BME280;4706;41.844;26.082;2023-03-23T03:04:13;100796.44;;;12.48;90.99
9335;BME280;4706;41.844;26.082;2023-03-23T03:07:07;100792.34;;;12.45;91.09
9335;BME280;4706;41.844;26.082;2023-03-23T03:09:42;100796.94;;;12.50;91.18
9335;BME280;4706;41.844;26.082;2023-03-23T03:12:26;100792.03;;;12.47;91.11
9335;BME280;4706;41.844;26.082;2023-03-23T03:18:37;100801.34;;;12.51;91.63
9335;BME280;4706;41.844;26.082;2023-03-23T03:20:48;100806.25;;;12.40;91.90
9335;BME280;4706;41.844;26.082;2023-03-23T03:23:16;100812.16;;;12.33;92.96
9335;BME280;4706;41.844;26.082;2023-03-23T03:25:43;100809.22;;;12.30;93.00
9335;BME280;4706;41.844;26.082;2023-03-23T03:28:18;100817.47;;;12.44;92.71
9335;BME280;4706;41.844;26.082;2023-03-23T03:30:51;100812.69;;;12.49;92.08
9335;BME280;4706;41.844;26.082;2023-03-23T03:33:20;100819.41;;;12.43;91.50
9335;BME280;4706;41.844;26.082;2023-03-23T03:35:46;100811.97;;;12.30;92.81
9335;BME280;4706;41.844;26.082;2023-03-23T03:38:12;100813.91;;;12.29;93.55
9335;BME280;4706;41.844;26.082;2023-03-23T03:40:39;100828.91;;;12.37;92.87
9335;BME280;4706;41.844;26.082;2023-03-23T03:43:08;100818.09;;;12.40;92.30
9335;BME280;4706;41.844;26.082;2023-03-23T03:45:34;100830.84;;;12.36;92.88
9335;BME280;4706;41.844;26.082;2023-03-23T03:47:59;100823.50;;;12.32;92.69
9335;BME280;4706;41.844;26.082;2023-03-23T03:50:27;100818.72;;;12.24;93.65
9335;BME280;4706;41.844;26.082;2023-03-23T03:52:53;100822.41;;;12.19;94.01
9335;BME280;4706;41.844;26.082;2023-03-23T03:55:19;100821.47;;;12.24;93.64
9335;BME280;4706;41.844;26.082;2023-03-23T03:57:44;100823.09;;;12.25;93.76
9335;BME280;4706;41.844;26.082;2023-03-23T04:00:10;100826.28;;;12.32;93.26
9335;BME280;4706;41.844;26.082;2023-03-23T04:02:47;100818.72;;;12.37;92.80
9335;BME280;4706;41.844;26.082;2023-03-23T04:05:16;100816.56;;;12.34;92.78
9335;BME280;4706;41.844;26.082;2023-03-23T04:07:42;100825.13;;;12.33;93.20
9335;BME280;4706;41.844;26.082;2023-03-23T04:10:10;100820.22;;;13.66;100.00
9335;BME280;4706;41.844;26.082;2023-03-23T04:12:36;100819.16;;;13.31;100.00
9335;BME280;4706;41.844;26.082;2023-03-23T04:15:03;100816.69;;;12.93;100.00
9335;BME280;4706;41.844;26.082;2023-03-23T04:17:29;100817.44;;;12.71;100.00
9335;BME280;4706;41.844;26.082;2023-03-23T04:19:55;100809.81;;;12.40;100.00
9335;BME280;4706;41.844;26.082;2023-03-23T04:22:26;100837.81;;;12.48;100.00
9335;BME280;4706;41.844;26.082;2023-03-23T04:24:59;100828.91;;;12.51;98.83
9335;BME280;4706;41.844;26.082;2023-03-23T04:27:27;100821.78;;;12.36;98.79
9335;BME280;4706;41.844;26.082;2023-03-23T04:29:55;100833.31;;;12.38;98.40
9335;BME280;4706;41.844;26.082;2023-03-23T04:32:25;100834.63;;;12.54;97.44
9335;BME280;4706;41.844;26.082;2023-03-23T04:34:58;100825.66;;;12.35;97.16
9335;BME280;4706;41.844;26.082;2023-03-23T04:37:26;100840.69;;;12.43;97.31
9335;BME280;4706;41.844;26.082;2023-03-23T04:39:57;100843.22;;;12.39;97.68
9335;BME280;4706;41.844;26.082;2023-03-23T04:42:30;100842.69;;;12.37;98.46
9335;BME280;4706;41.844;26.082;2023-03-23T04:44:57;100839.56;;;12.30;99.07
9335;BME280;4706;41.844;26.082;2023-03-23T04:47:25;100848.13;;;12.28;99.05
9335;BME280;4706;41.844;26.082;2023-03-23T04:49:58;100854.44;;;12.29;98.95
9335;BME280;4706;41.844;26.082;2023-03-23T04:52:28;100858.16;;;12.38;97.87
9335;BME280;4706;41.844;26.082;2023-03-23T04:54:54;100855.19;;;12.34;98.77
9335;BME280;4706;41.844;26.082;2023-03-23T04:57:22;100853.44;;;12.38;98.80
9335;BME280;4706;41.844;26.082;2023-03-23T04:59:47;100863.97;;;12.36;98.12
9335;BME280;4706;41.844;26.082;2023-03-23T05:02:14;100865.59;;;12.24;97.67
9335;BME280;4706;41.844;26.082;2023-03-23T05:04:40;100871.28;;;12.13;98.83
9335;BME280;4706;41.844;26.082;2023-03-23T05:07:07;100867.63;;;12.18;99.15
9335;BME280;4706;41.844;26.082;2023-03-23T05:09:33;100874.38;;;12.26;99.55
9335;BME280;4706;41.844;26.082;2023-03-23T05:12:04;100873.56;;;12.25;99.65
9335;BME280;4706;41.844;26.082;2023-03-23T05:14:29;100874.88;;;12.28;99.80
9335;BME280;4706;41.844;26.082;2023-03-23T05:16:55;100880.81;;;12.35;99.53
9335;BME280;4706;41.844;26.082;2023-03-23T05:19:21;100868.06;;;12.39;99.27
9335;BME280;4706;41.844;26.082;2023-03-23T05:21:46;100879.59;;;12.41;99.64
9335;BME280;4706;41.844;26.082;2023-03-23T05:24:12;100875.94;;;12.46;98.63
9335;BME280;4706;41.844;26.082;2023-03-23T05:26:38;100881.44;;;12.46;98.80
9335;BME280;4706;41.844;26.082;2023-03-23T05:29:03;100879.91;;;12.39;99.16
9335;BME280;4706;41.844;26.082;2023-03-23T05:31:28;100884.50;;;12.44;98.99
9335;BME280;4706;41.844;26.082;2023-03-23T05:33:54;100881.84;;;12.39;98.47
9335;BME280;4706;41.844;26.082;2023-03-23T05:36:20;100886.44;;;12.44;98.69
9335;BME280;4706;41.844;26.082;2023-03-23T05:38:45;100890.03;;;12.30;100.00
9335;BME280;4706;41.844;26.082;2023-03-23T05:41:14;100899.72;;;12.28;100.00
9335;BME280;4706;41.844;26.082;2023-03-23T05:43:39;100884.09;;;12.23;100.00
9335;BME280;4706;41.844;26.082;2023-03-23T05:46:05;100896.78;;;12.38;99.07
9335;BME280;4706;41.844;26.082;2023-03-23T05:48:32;100899.81;;;12.36;99.05
9335;BME280;4706;41.844;26.082;2023-03-23T05:50:58;100897.38;;;12.35;98.80
9335;BME280;4706;41.844;26.082;2023-03-23T05:53:24;100899.19;;;12.26;99.61
9335;BME280;4706;41.844;26.082;2023-03-23T05:55:49;100899.56;;;12.05;100.00
9335;BME280;4706;41.844;26.082;2023-03-23T05:58:15;100900.09;;;12.07;100.00
9335;BME280;4706;41.844;26.082;2023-03-23T06:00:41;100897.13;;;12.04;100.00
9335;BME280;4706;41.844;26.082;2023-03-23T06:03:06;100903.66;;;12.08;100.00
9335;BME280;4706;41.844;26.082;2023-03-23T06:05:32;100906.84;;;12.15;100.00
9335;BME280;4706;41.844;26.082;2023-03-23T06:07:58;100908.16;;;12.18;100.00
9335;BME280;4706;41.844;26.082;2023-03-23T06:10:25;100916.03;;;12.24;100.00
9335;BME280;4706;41.844;26.082;2023-03-23T06:12:50;100912.25;;;12.20;100.00
9335;BME280;4706;41.844;26.082;2023-03-23T06:15:17;100919.34;;;12.26;100.00
9335;BME280;4706;41.844;26.082;2023-03-23T06:17:42;100910.63;;;12.33;100.00
9335;BME280;4706;41.844;26.082;2023-03-23T06:20:09;100913.84;;;12.54;99.22
9335;BME280;4706;41.844;26.082;2023-03-23T06:22:36;100914.56;;;12.46;98.87
9335;BME280;4706;41.844;26.082;2023-03-23T06:25:06;100917.50;;;12.35;99.49
9335;BME280;4706;41.844;26.082;2023-03-23T06:27:33;100921.59;;;12.38;99.71
9335;BME280;4706;41.844;26.082;2023-03-23T06:29:58;100922.81;;;12.32;100.00
9335;BME280;4706;41.844;26.082;2023-03-23T06:32:25;100928.91;;;12.29;100.00
9335;BME280;4706;41.844;26.082;2023-03-23T06:34:53;100922.41;;;12.38;100.00
9335;BME280;4706;41.844;26.082;2023-03-23T06:37:19;100923.66;;;12.46;100.00
9335;BME280;4706;41.844;26.082;2023-03-23T06:39:45;100925.81;;;12.49;100.00
9335;BME280;4706;41.844;26.082;2023-03-23T06:42:11;100932.44;;;12.62;99.94
9335;BME280;4706;41.844;26.082;2023-03-23T06:44:37;100926.59;;;12.63;98.15
9335;BME280;4706;41.844;26.082;2023-03-23T06:47:03;100921.41;;;12.62;99.22
9335;BME280;4706;41.844;26.082;2023-03-23T06:49:29;100931.94;;;12.46;100.00
9335;BME280;4706;41.844;26.082;2023-03-23T06:51:55;100928.44;;;12.40;100.00
9335;BME280;4706;41.844;26.082;2023-03-23T06:54:25;100934.91;;;12.50;100.00
9335;BME280;4706;41.844;26.082;2023-03-23T06:56:51;100934.50;;;12.56;100.00
9335;BME280;4706;41.844;26.082;2023-03-23T06:59:16;100931.84;;;12.65;99.83
9335;BME280;4706;41.844;26.082;2023-03-23T07:01:42;100929.28;;;12.55;100.00
9335;BME280;4706;41.844;26.082;2023-03-23T07:04:07;100933.97;;;12.54;99.58
9335;BME280;4706;41.844;26.082;2023-03-23T07:06:33;100939.31;;;12.64;99.17
9335;BME280;4706;41.844;26.082;2023-03-23T07:08:58;100939.72;;;12.72;98.93
9335;BME280;4706;41.844;26.082;2023-03-23T07:11:24;100931.31;;;12.63;99.38
9335;BME280;4706;41.844;26.082;2023-03-23T07:13:50;100926.09;;;12.61;99.36
9335;BME280;4706;41.844;26.082;2023-03-23T07:16:16;100939.91;;;12.61;100.00
9335;BME280;4706;41.844;26.082;2023-03-23T07:18:43;100935.63;;;12.69;99.70
9335;BME280;4706;41.844;26.082;2023-03-23T07:21:08;100934.59;;;12.65;100.00
9335;BME280;4706;41.844;26.082;2023-03-23T07:23:34;100944.41;;;12.71;100.00
9335;BME280;4706;41.844;26.082;2023-03-23T07:25:59;100944.91;;;12.73;100.00
9335;BME280;4706;41.844;26.082;2023-03-23T07:28:25;100954.41;;;12.67;100.00
9335;BME280;4706;41.844;26.082;2023-03-23T07:30:51;100954.97;;;12.83;99.00
9335;BME280;4706;41.844;26.082;2023-03-23T07:33:18;100954.22;;;12.91;97.77
9335;BME280;4706;41.844;26.082;2023-03-23T07:35:43;100954.03;;;12.87;98.06
9335;BME280;4706;41.844;26.082;2023-03-23T07:38:09;100951.66;;;12.67;98.83
9335;BME280;4706;41.844;26.082;2023-03-23T07:40:35;100948.22;;;12.75;98.27
9335;BME280;4706;41.844;26.082;2023-03-23T07:43:03;100958.94;;;12.77;98.79
9335;BME280;4706;41.844;26.082;2023-03-23T07:45:30;100962.81;;;12.89;98.20
9335;BME280;4706;41.844;26.082;2023-03-23T07:47:56;100959.75;;;12.77;98.24
9335;BME280;4706;41.844;26.082;2023-03-23T07:50:22;100968.84;;;12.78;98.84
9335;BME280;4706;41.844;26.082;2023-03-23T07:52:50;100967.53;;;12.75;98.84
9335;BME280;4706;41.844;26.082;2023-03-23T07:55:17;100965.78;;;12.66;99.08
9335;BME280;4706;41.844;26.082;2023-03-23T07:57:44;100972.09;;;12.66;100.00
9335;BME280;4706;41.844;26.082;2023-03-23T08:00:11;100972.00;;;12.85;100.00
9335;BME280;4706;41.844;26.082;2023-03-23T08:02:39;100969.97;;;12.77;99.55
9335;BME280;4706;41.844;26.082;2023-03-23T08:05:04;100968.97;;;12.86;99.87
9335;BME280;4706;41.844;26.082;2023-03-23T08:07:30;100974.28;;;12.83;99.12
9335;BME280;4706;41.844;26.082;2023-03-23T08:09:55;100985.41;;;12.92;99.84
9335;BME280;4706;41.844;26.082;2023-03-23T08:12:21;100980.31;;;12.99;100.00
9335;BME280;4706;41.844;26.082;2023-03-23T08:14:46;100996.03;;;13.12;99.81
9335;BME280;4706;41.844;26.082;2023-03-23T08:17:13;100997.59;;;13.18;99.69
9335;BME280;4706;41.844;26.082;2023-03-23T08:19:39;100998.72;;;13.17;100.00
9335;BME280;4706;41.844;26.082;2023-03-23T08:22:05;100996.06;;;13.26;100.00
9335;BME280;4706;41.844;26.082;2023-03-23T08:24:32;100999.56;;;13.31;100.00
9335;BME280;4706;41.844;26.082;2023-03-23T08:27:00;100991.75;;;13.47;97.17
9335;BME280;4706;41.844;26.082;2023-03-23T08:29:26;101001.78;;;13.43;98.95
9335;BME280;4706;41.844;26.082;2023-03-23T08:31:52;100991.56;;;13.44;98.75
9335;BME280;4706;41.844;26.082;2023-03-23T08:34:19;101002.47;;;13.63;98.00
9335;BME280;4706;41.844;26.082;2023-03-23T08:36:45;100997.38;;;13.42;97.80
9335;BME280;4706;41.844;26.082;2023-03-23T08:39:12;100997.09;;;13.44;98.58
9335;BME280;4706;41.844;26.082;2023-03-23T08:41:40;100989.41;;;13.41;99.38
9335;BME280;4706;41.844;26.082;2023-03-23T08:44:05;100987.94;;;13.57;99.88
9335;BME280;4706;41.844;26.082;2023-03-23T08:46:34;100983.22;;;13.57;98.57
9335;BME280;4706;41.844;26.082;2023-03-23T08:49:00;100993.38;;;13.48;99.96
9335;BME280;4706;41.844;26.082;2023-03-23T08:51:26;100984.75;;;13.64;98.61
9335;BME280;4706;41.844;26.082;2023-03-23T08:53:51;100957.47;;;13.48;98.65
9335;BME280;4706;41.844;26.082;2023-03-23T08:56:17;100986.59;;;13.91;97.70
9335;BME280;4706;41.844;26.082;2023-03-23T08:58:43;100985.75;;;14.04;97.30
9335;BME280;4706;41.844;26.082;2023-03-23T09:01:09;100979.88;;;14.05;97.44
9335;BME280;4706;41.844;26.082;2023-03-23T09:03:37;100990.00;;;14.10;96.70
9335;BME280;4706;41.844;26.082;2023-03-23T09:06:06;100985.59;;;14.31;96.61
9335;BME280;4706;41.844;26.082;2023-03-23T09:08:32;100990.25;;;14.45;96.33
9335;BME280;4706;41.844;26.082;2023-03-23T09:11:06;100979.75;;;14.55;94.57
9335;BME280;4706;41.844;26.082;2023-03-23T09:13:34;100979.44;;;14.57;95.51
9335;BME280;4706;41.844;26.082;2023-03-23T09:16:00;100988.66;;;14.75;93.50
9335;BME280;4706;41.844;26.082;2023-03-23T09:18:25;100992.72;;;14.77;92.65
9335;BME280;4706;41.844;26.082;2023-03-23T09:20:52;100987.19;;;14.77;93.35
9335;BME280;4706;41.844;26.082;2023-03-23T09:23:18;100984.94;;;14.88;93.83
9335;BME280;4706;41.844;26.082;2023-03-23T09:25:44;100957.09;;;14.53;93.17
9335;BME280;4706;41.844;26.082;2023-03-23T09:28:09;100993.25;;;14.88;92.96
9335;BME280;4706;41.844;26.082;2023-03-23T09:30:36;100986.91;;;14.88;93.23
9335;BME280;4706;41.844;26.082;2023-03-23T09:33:06;100990.06;;;15.03;91.71
9335;BME280;4706;41.844;26.082;2023-03-23T09:35:34;100984.69;;;15.07;90.83
9335;BME280;4706;41.844;26.082;2023-03-23T09:38:01;100978.69;;;15.14;89.82
9335;BME280;4706;41.844;26.082;2023-03-23T09:40:43;100984.88;;;15.11;90.56
9335;BME280;4706;41.844;26.082;2023-03-23T09:48:55;100988.69;;;15.41;89.07
9335;BME280;4706;41.844;26.082;2023-03-23T09:51:30;100982.69;;;15.47;88.03
9335;BME280;4706;41.844;26.082;2023-03-23T09:54:03;100984.16;;;15.53;87.71
9335;BME280;4706;41.844;26.082;2023-03-23T09:56:31;100977.66;;;15.75;85.51
9335;BME280;4706;41.844;26.082;2023-03-23T10:01:28;100984.69;;;15.90;84.22
9335;BME280;4706;41.844;26.082;2023-03-23T10:04:21;100956.31;;;15.85;85.29
9335;BME280;4706;41.844;26.082;2023-03-23T10:06:48;100985.81;;;16.15;84.93
9335;BME280;4706;41.844;26.082;2023-03-23T10:09:17;100985.47;;;16.17;82.51
9335;BME280;4706;41.844;26.082;2023-03-23T10:11:59;100985.00;;;15.97;81.89
9335;BME280;4706;41.844;26.082;2023-03-23T10:14:37;100979.47;;;15.97;83.09
9335;BME280;4706;41.844;26.082;2023-03-23T10:22:39;100975.06;;;16.14;82.07
9335;BME280;4706;41.844;26.082;2023-03-23T10:25:16;100977.66;;;16.19;83.44
9335;BME280;4706;41.844;26.082;2023-03-23T10:27:53;100974.19;;;16.31;81.53
9335;BME280;4706;41.844;26.082;2023-03-23T10:30:31;100971.56;;;16.43;79.22
9335;BME280;4706;41.844;26.082;2023-03-23T10:33:05;100971.25;;;16.36;78.38
9335;BME280;4706;41.844;26.082;2023-03-23T10:35:51;100974.78;;;16.54;79.72
9335;BME280;4706;41.844;26.082;2023-03-23T10:38:23;100958.75;;;16.68;80.40
9335;BME280;4706;41.844;26.082;2023-03-23T10:41:05;100963.00;;;16.74;78.85
9335;BME280;4706;41.844;26.082;2023-03-23T10:43:33;100948.44;;;16.68;78.46
9335;BME280;4706;41.844;26.082;2023-03-23T10:46:29;100956.81;;;16.60;78.25
9335;BME280;4706;41.844;26.082;2023-03-23T10:48:58;100958.94;;;16.63;78.14
9335;BME280;4706;41.844;26.082;2023-03-23T10:51:39;100955.69;;;16.52;77.79
9335;BME280;4706;41.844;26.082;2023-03-23T10:54:06;100957.16;;;16.49;77.87
9335;BME280;4706;41.844;26.082;2023-03-23T10:56:41;100957.19;;;16.41;78.12
9335;BME280;4706;41.844;26.082;2023-03-23T10:59:29;100954.28;;;16.29;78.57
9335;BME280;4706;41.844;26.082;2023-03-23T11:01:58;100950.06;;;16.22;78.28
9335;BME280;4706;41.844;26.082;2023-03-23T11:04:26;100949.75;;;16.62;76.10
9335;BME280;4706;41.844;26.082;2023-03-23T11:06:54;100949.41;;;17.11;73.76
9335;BME280;4706;41.844;26.082;2023-03-23T11:09:35;100954.34;;;17.35;70.29
9335;BME280;4706;41.844;26.082;2023-03-23T11:12:01;100939.50;;;17.01;70.14
9335;BME280;4706;41.844;26.082;2023-03-23T11:14:29;100946.38;;;16.95;70.51
9335;BME280;4706;41.844;26.082;2023-03-23T11:17:00;100945.19;;;16.75;70.21
9335;BME280;4706;41.844;26.082;2023-03-23T11:19:32;100939.81;;;16.61;69.44
9335;BME280;4706;41.844;26.082;2023-03-23T11:24:33;100945.69;;;15.87;77.42
9335;BME280;4706;41.844;26.082;2023-03-23T11:26:59;100953.97;;;15.43;79.92
9335;BME280;4706;41.844;26.082;2023-03-23T11:29:27;100937.41;;;15.03;81.86
9335;BME280;4706;41.844;26.082;2023-03-23T11:32:03;100956.72;;;14.46;80.09
9335;BME280;4706;41.844;26.082;2023-03-23T11:34:46;100947.25;;;14.16;81.54
9335;BME280;4706;41.844;26.082;2023-03-23T11:37:27;100950.41;;;14.01;82.73
9335;BME280;4706;41.844;26.082;2023-03-23T11:42:56;100945.06;;;14.04;82.61
9335;BME280;4706;41.844;26.082;2023-03-23T11:45:41;100943.69;;;14.16;80.96
9335;BME280;4706;41.844;26.082;2023-03-23T11:51:04;100948.69;;;14.14;80.68
9335;BME280;4706;41.844;26.082;2023-03-23T11:58:33;100941.91;;;13.97;82.21
9335;BME280;4706;41.844;26.082;2023-03-23T12:06:36;100948.38;;;14.38;79.27
9335;BME280;4706;41.844;26.082;2023-03-23T12:09:35;100935.75;;;14.23;79.00
9335;BME280;4706;41.844;26.082;2023-03-23T12:25:55;100927.28;;;14.50;79.63
9335;BME280;4706;41.844;26.082;2023-03-23T12:31:34;100922.50;;;14.73;77.92
9335;BME280;4706;41.844;26.082;2023-03-23T12:44:53;100925.75;;;15.24;75.48
9335;BME280;4706;41.844;26.082;2023-03-23T12:47:42;100917.78;;;15.31;75.14
9335;BME280;4706;41.844;26.082;2023-03-23T12:53:11;100918.25;;;15.16;76.48
9335;BME280;4706;41.844;26.082;2023-03-23T12:56:02;100913.19;;;15.26;77.84
9335;BME280;4706;41.844;26.082;2023-03-23T12:58:32;100913.19;;;15.26;79.18
9335;BME280;4706;41.844;26.082;2023-03-23T13:01:05;100911.72;;;15.20;80.26
9335;BME280;4706;41.844;26.082;2023-03-23T13:06:27;100916.44;;;15.20;80.01
9335;BME280;4706;41.844;26.082;2023-03-23T13:14:33;100905.19;;;15.16;78.59
9335;BME280;4706;41.844;26.082;2023-03-23T13:25:56;100902.25;;;15.21;78.02
9335;BME280;4706;41.844;26.082;2023-03-23T13:28:28;100901.91;;;15.14;77.64
9335;BME280;4706;41.844;26.082;2023-03-23T13:30:55;100900.44;;;15.08;78.22
9335;BME280;4706;41.844;26.082;2023-03-23T13:33:22;100899.81;;;15.20;77.07
9335;BME280;4706;41.844;26.082;2023-03-23T13:35:49;100880.44;;;15.28;76.07
9335;BME280;4706;41.844;26.082;2023-03-23T13:38:27;100888.75;;;15.54;74.89
9335;BME280;4706;41.844;26.082;2023-03-23T13:40:56;100888.41;;;15.56;74.80
9335;BME280;4706;41.844;26.082;2023-03-23T13:43:34;100891.88;;;15.70;74.34
9335;BME280;4706;41.844;26.082;2023-03-23T13:46:29;100890.88;;;15.84;73.90
9335;BME280;4706;41.844;26.082;2023-03-23T13:49:17;100893.44;;;15.97;73.41
9335;BME280;4706;41.844;26.082;2023-03-23T13:57:00;100893.16;;;15.82;71.91
9335;BME280;4706;41.844;26.082;2023-03-23T13:59:34;100881.25;;;15.81;72.65
9335;BME280;4706;41.844;26.082;2023-03-23T14:04:57;100899.66;;;15.94;72.38
9335;BME280;4706;41.844;26.082;2023-03-23T14:07:53;100889.69;;;16.02;71.11
9335;BME280;4706;41.844;26.082;2023-03-23T14:10:19;100887.25;;;16.00;71.04
9335;BME280;4706;41.844;26.082;2023-03-23T14:12:46;100892.63;;;15.97;71.39
9335;BME280;4706;41.844;26.082;2023-03-23T14:15:13;100883.69;;;15.83;71.95
9335;BME280;4706;41.844;26.082;2023-03-23T14:17:43;100896.59;;;15.87;72.04
9335;BME280;4706;41.844;26.082;2023-03-23T14:20:22;100902.94;;;15.96;72.47
9335;BME280;4706;41.844;26.082;2023-03-23T14:22:53;100903.59;;;15.85;72.67
9335;BME280;4706;41.844;26.082;2023-03-23T14:25:19;100894.09;;;15.94;71.64
9335;BME280;4706;41.844;26.082;2023-03-23T14:27:51;100897.56;;;15.91;71.74
9335;BME280;4706;41.844;26.082;2023-03-23T14:30:28;100903.09;;;15.83;71.11
9335;BME280;4706;41.844;26.082;2023-03-23T14:33:06;100904.72;;;15.92;70.90
9335;BME280;4706;41.844;26.082;2023-03-23T14:35:36;100907.00;;;15.90;72.00
9335;BME280;4706;41.844;26.082;2023-03-23T14:38:03;100912.91;;;15.89;72.14
9335;BME280;4706;41.844;26.082;2023-03-23T14:40:30;100907.00;;;15.90;72.12
9335;BME280;4706;41.844;26.082;2023-03-23T14:42:56;100909.63;;;15.87;72.39
9335;BME280;4706;41.844;26.082;2023-03-23T14:45:23;100907.69;;;15.70;73.08
9335;BME280;4706;41.844;26.082;2023-03-23T14:48:02;100911.94;;;15.76;71.98
9335;BME280;4706;41.844;26.082;2023-03-23T14:50:41;100921.06;;;15.68;72.89
9335;BME280;4706;41.844;26.082;2023-03-23T14:53:30;100922.66;;;15.60;71.92
9335;BME280;4706;41.844;26.082;2023-03-23T14:56:00;100916.63;;;15.49;71.00
9335;BME280;4706;41.844;26.082;2023-03-23T14:58:28;100918.41;;;15.37;72.00
9335;BME280;4706;41.844;26.082;2023-03-23T15:03:21;100919.69;;;15.13;74.22